createdAt,value
2022-08-09T00:04:05.935Z,61.20
2022-08-09T00:08:33.230Z,61.30
2022-08-09T00:12:56.373Z,61.50
2022-08-09T00:18:04.402Z,61.40
2022-08-09T00:21:55.968Z,61.40
2022-08-09T00:26:12.510Z,61.10
2022-08-09T00:30:28.770Z,60.90
2022-08-09T00:34:51.984Z,60.80
2022-08-09T00:39:10.905Z,60.20
2022-08-09T00:44:10.159Z,60.00
2022-08-09T00:48:23.492Z,59.90
2022-08-09T00:52:43.855Z,59.60
2022-08-09T00:57:08.842Z,59.80
2022-08-09T01:01:44.294Z,59.80
2022-08-09T01:06:17.802Z,59.70
2022-08-09T01:10:47.309Z,59.60
2022-08-09T01:15:17.665Z,59.70
2022-08-09T01:20:01.677Z,60.00
2022-08-09T01:24:28.549Z,60.00
2022-08-09T01:29:03.134Z,60.10
2022-08-09T01:33:21.690Z,60.30
2022-08-09T01:38:05.662Z,60.50
2022-08-09T01:42:13.941Z,60.60
2022-08-09T01:46:33.855Z,60.60
2022-08-09T01:50:54.953Z,60.90
2022-08-09T01:55:12.254Z,60.80
2022-08-09T01:59:32.487Z,61.00
2022-08-09T02:03:55.419Z,61.10
2022-08-09T02:08:40.559Z,61.10
2022-08-09T02:12:51.646Z,61.30
2022-08-09T02:17:14.968Z,61.70
2022-08-09T02:21:55.782Z,61.50
2022-08-09T02:26:24.937Z,61.70
2022-08-09T02:30:46.513Z,61.60
2022-08-09T02:35:17.421Z,61.90
2022-08-09T02:39:41.840Z,61.70
2022-08-09T02:44:10.366Z,61.90
2022-08-09T02:49:01.591Z,61.70
2022-08-09T02:53:26.675Z,61.70
2022-08-09T02:58:00.548Z,61.70
2022-08-09T03:02:21.478Z,61.90
2022-08-09T03:06:43.758Z,62.00
2022-08-09T03:11:01.878Z,61.90
2022-08-09T03:15:18.664Z,62.00
2022-08-09T03:19:59.204Z,61.90
2022-08-09T03:24:31.286Z,62.10
2022-08-09T03:28:55.694Z,62.00
2022-08-09T03:33:19.050Z,62.10
2022-08-09T03:37:56.518Z,62.20
2022-08-09T03:42:07.151Z,62.20
2022-08-09T03:46:29.408Z,62.10
2022-08-09T03:50:45.980Z,62.00
2022-08-09T03:55:07.668Z,61.90
2022-08-09T03:59:27.211Z,61.90
2022-08-09T04:04:02.265Z,61.80
2022-08-09T04:08:19.302Z,61.60
2022-08-09T04:12:47.707Z,61.70
2022-08-09T04:17:03.078Z,61.60
2022-08-09T04:21:16.469Z,61.40
2022-08-09T04:25:32.926Z,62.20
2022-08-09T04:29:49.658Z,61.20
2022-08-09T04:34:03.424Z,61.60
2022-08-09T04:38:16.554Z,64.90
2022-08-09T04:42:35.368Z,62.60
2022-08-09T04:46:59.173Z,58.10
2022-08-09T04:51:20.545Z,56.50
2022-08-09T04:55:39.637Z,57.90
2022-08-09T04:59:57.119Z,55.90
2022-08-09T05:04:10.597Z,55.20
2022-08-09T05:08:28.237Z,55.40
2022-08-09T05:12:42.476Z,55.10
2022-08-09T05:17:00.094Z,54.50
2022-08-09T05:21:22.964Z,53.40
2022-08-09T05:25:38.247Z,52.20
2022-08-09T05:29:51.329Z,51.70
2022-08-09T05:34:05.871Z,52.40
2022-08-09T05:38:21.846Z,52.10
2022-08-09T05:42:35.739Z,51.20
2022-08-09T05:46:50.488Z,51.30
2022-08-09T05:51:30.260Z,51.20
2022-08-09T05:55:39.539Z,51.40
2022-08-09T05:59:55.603Z,51.10
2022-08-09T06:04:08.717Z,51.90
2022-08-09T06:08:26.662Z,51.60
2022-08-09T06:12:41.504Z,52.00
2022-08-09T06:17:00.564Z,51.50
2022-08-09T06:21:22.831Z,50.80
2022-08-09T06:25:37.271Z,50.50
2022-08-09T06:30:04.468Z,50.70
2022-08-09T06:34:31.716Z,50.10
2022-08-09T06:38:49.989Z,49.70
2022-08-09T06:43:07.657Z,49.60
2022-08-09T06:47:24.148Z,48.80
2022-08-09T06:51:40.195Z,48.60
2022-08-09T06:55:55.772Z,48.20
2022-08-09T07:00:55.053Z,48.60
2022-08-09T07:04:47.083Z,48.50
2022-08-09T07:09:00.178Z,48.70
2022-08-09T07:13:27.300Z,48.50
2022-08-09T07:17:56.161Z,48.70
2022-08-09T07:22:15.713Z,48.10
2022-08-09T07:26:31.285Z,48.10
2022-08-09T07:30:44.362Z,48.40
2022-08-09T07:34:58.847Z,48.50
2022-08-09T07:39:12.506Z,48.10
2022-08-09T07:43:33.789Z,48.20
2022-08-09T07:48:04.424Z,48.30
2022-08-09T07:52:19.473Z,47.80
2022-08-09T07:56:34.467Z,48.20
2022-08-09T08:00:55.798Z,48.40
2022-08-09T08:05:19.681Z,47.90
2022-08-09T08:09:39.783Z,47.60
2022-08-09T08:13:59.509Z,47.40
2022-08-09T08:18:14.293Z,47.30
2022-08-09T08:22:28.636Z,47.70
2022-08-09T08:26:55.467Z,47.70
2022-08-09T08:31:15.056Z,47.50
2022-08-09T08:35:37.146Z,47.10
2022-08-09T08:40:01.620Z,46.90
2022-08-09T08:44:27.010Z,46.90
2022-08-09T08:48:51.546Z,47.20
2022-08-09T08:53:15.710Z,47.30
2022-08-09T08:57:29.851Z,47.20
2022-08-09T09:01:57.089Z,47.50
2022-08-09T09:06:12.847Z,47.10
2022-08-09T09:10:29.196Z,46.60
2022-08-09T09:14:44.500Z,46.30
2022-08-09T09:19:29.156Z,45.70
2022-08-09T09:23:42.246Z,45.00
2022-08-09T09:28:39.245Z,44.80
2022-08-09T09:33:16.379Z,44.40
2022-08-09T09:37:34.417Z,44.10
2022-08-09T09:41:50.964Z,43.90
2022-08-09T09:50:50.858Z,43.10
2022-08-09T09:55:27.613Z,42.80
2022-08-09T10:00:31.349Z,42.40
2022-08-09T10:06:03.378Z,41.90
2022-08-09T10:10:36.556Z,41.30
2022-08-09T10:15:25.589Z,40.90
2022-08-09T10:20:27.805Z,40.80
2022-08-09T10:24:54.021Z,40.10
2022-08-09T10:29:37.237Z,38.80
2022-08-09T10:34:09.822Z,38.50
2022-08-09T10:43:46.896Z,38.80
2022-08-09T10:49:10.486Z,38.10
2022-08-09T11:28:30.670Z,32.60
2022-08-09T11:37:40.877Z,31.00
2022-08-09T11:42:03.514Z,30.20
2022-08-09T11:46:28.864Z,29.70
2022-08-09T11:52:54.174Z,30.20
2022-08-09T11:55:52.425Z,29.80
2022-08-09T12:00:16.426Z,28.70
2022-08-09T12:04:37.840Z,28.70
2022-08-09T12:08:58.008Z,28.30
2022-08-09T12:14:08.377Z,27.90
2022-08-09T12:17:54.873Z,27.90
2022-08-09T12:22:11.810Z,28.90
2022-08-09T12:26:27.349Z,27.80
2022-08-09T12:30:45.765Z,27.40
2022-08-09T12:35:12.409Z,27.40
2022-08-09T12:39:31.601Z,27.20
2022-08-09T12:44:06.325Z,26.90
2022-08-09T12:48:33.154Z,26.10
2022-08-09T12:53:08.311Z,26.60
2022-08-09T12:57:41.771Z,26.60
2022-08-09T13:02:12.004Z,26.90
2022-08-09T13:06:33.904Z,26.00
2022-08-09T13:11:22.879Z,25.90
2022-08-09T13:16:00.963Z,25.90
2022-08-09T13:22:33.795Z,25.90
2022-08-09T13:25:55.015Z,25.10
2022-08-09T13:30:51.592Z,25.10
2022-08-09T13:35:02.953Z,25.30
2022-08-09T13:56:41.472Z,41.80
2022-08-09T14:01:00.705Z,37.70
2022-08-09T14:05:57.161Z,28.10
2022-08-09T14:09:53.120Z,51.50
2022-08-09T14:14:22.045Z,22.70
2022-08-09T14:18:38.810Z,22.10
2022-08-09T14:22:57.842Z,21.50
2022-08-09T14:27:20.400Z,21.30
2022-08-09T14:31:52.233Z,20.80
2022-08-09T14:36:20.725Z,20.10
2022-08-09T14:41:01.513Z,21.80
2022-08-09T14:46:40.307Z,19.40
2022-08-09T14:49:49.090Z,19.30
2022-08-09T14:54:16.863Z,18.70
2022-08-09T14:58:37.999Z,18.90
2022-08-09T15:02:58.380Z,18.20
2022-08-09T15:07:14.207Z,18.30
2022-08-09T15:11:30.463Z,17.30
2022-08-09T15:15:46.221Z,17.30
2022-08-09T15:20:02.282Z,17.10
2022-08-09T15:24:23.365Z,17.30
2022-08-09T15:28:41.920Z,17.40
2022-08-09T15:32:57.082Z,16.90
2022-08-09T15:37:36.926Z,16.30
2022-08-09T15:41:51.614Z,16.60
2022-08-09T15:46:28.278Z,16.70
2022-08-09T15:50:43.722Z,16.40
2022-08-09T15:54:57.519Z,16.50
2022-08-09T15:59:11.756Z,16.90
2022-08-09T16:03:29.711Z,17.00
2022-08-09T16:07:53.525Z,16.90
2022-08-09T16:12:11.193Z,17.20
2022-08-09T16:16:28.424Z,16.80
2022-08-09T16:20:41.853Z,17.60
2022-08-09T16:24:59.574Z,17.40
2022-08-09T16:29:16.441Z,17.60
2022-08-09T16:33:34.948Z,17.80
2022-08-09T16:37:54.707Z,17.70
2022-08-09T16:42:11.161Z,17.70
2022-08-09T16:46:28.174Z,17.80
2022-08-09T16:50:41.707Z,18.40
2022-08-09T16:55:15.836Z,18.10
2022-08-09T16:59:35.490Z,18.80
2022-08-09T17:08:43.270Z,18.30
2022-08-09T17:13:03.064Z,19.20
2022-08-09T17:17:26.884Z,19.20
2022-08-09T17:21:54.682Z,19.60
2022-08-09T17:26:31.676Z,19.60
2022-08-09T17:30:51.676Z,19.90
2022-08-09T17:35:12.068Z,20.20
2022-08-09T17:39:25.972Z,20.50
2022-08-09T17:44:37.863Z,20.80
2022-08-09T17:48:32.264Z,21.20
2022-08-09T17:52:49.298Z,22.30
2022-08-09T17:57:04.989Z,22.50
2022-08-09T18:01:23.228Z,23.10
2022-08-09T18:05:43.662Z,23.70
2022-08-09T18:10:04.771Z,24.90
2022-08-09T18:14:22.774Z,25.90
2022-08-09T18:23:05.380Z,27.10
2022-08-09T18:28:03.594Z,28.60
2022-08-09T18:31:55.570Z,29.00
2022-08-09T18:36:14.207Z,29.40
2022-08-09T18:40:27.997Z,30.20
2022-08-09T18:44:44.310Z,30.50
2022-08-09T18:49:01.786Z,31.20
2022-08-09T18:53:16.683Z,31.40
2022-08-09T18:57:38.460Z,32.00
2022-08-09T19:01:58.241Z,32.40
2022-08-09T19:06:15.030Z,33.20
2022-08-09T19:10:28.778Z,33.40
2022-08-09T19:14:43.373Z,34.10
2022-08-09T19:18:58.291Z,34.20
2022-08-09T19:23:16.516Z,34.20
2022-08-09T19:27:31.648Z,34.40
2022-08-09T19:31:46.008Z,35.00
2022-08-09T19:36:07.180Z,35.00
2022-08-09T19:40:34.274Z,35.40
2022-08-09T19:44:50.928Z,35.40
2022-08-09T19:50:10.378Z,36.30
2022-08-09T19:53:45.305Z,36.20
2022-08-09T19:58:00.311Z,36.40
2022-08-09T20:04:10.798Z,36.70
2022-08-09T20:23:23.058Z,36.90
2022-08-09T20:27:44.991Z,37.50
2022-08-09T20:32:29.275Z,37.50
2022-08-09T20:36:43.653Z,37.10
2022-08-09T20:41:01.342Z,37.10
2022-08-09T20:46:00.403Z,37.60
2022-08-09T20:49:56.628Z,37.70
2022-08-09T20:54:17.013Z,37.70
2022-08-09T20:58:38.127Z,38.10
2022-08-09T21:02:55.962Z,38.10
2022-08-09T21:07:17.178Z,38.00
2022-08-09T21:16:19.236Z,38.00
2022-08-09T21:20:32.958Z,37.70
2022-08-09T21:25:06.310Z,38.80
2022-08-09T21:29:22.650Z,40.00
2022-08-09T21:33:37.853Z,40.80
2022-08-09T21:37:59.723Z,41.30
2022-08-09T21:42:13.469Z,41.80
2022-08-09T21:46:28.719Z,42.30
2022-08-09T21:50:49.647Z,42.80
2022-08-09T21:55:05.349Z,43.40
2022-08-09T21:59:18.538Z,43.60
2022-08-09T22:03:35.987Z,44.00
2022-08-09T22:08:01.459Z,44.50
2022-08-09T22:12:18.373Z,44.60
2022-08-09T22:16:37.084Z,44.80
2022-08-09T22:20:52.672Z,44.70
2022-08-09T22:26:09.723Z,45.40
2022-08-09T22:29:50.191Z,45.60
2022-08-09T22:34:03.627Z,45.60
2022-08-09T22:38:29.194Z,45.80
2022-08-09T22:42:44.617Z,46.00
2022-08-09T22:48:14.400Z,46.20
2022-08-09T22:51:31.996Z,46.60
2022-08-09T22:56:30.563Z,46.70
2022-08-09T23:00:20.764Z,46.80
2022-08-09T23:04:34.347Z,46.80
2022-08-09T23:08:51.784Z,47.00
2022-08-09T23:13:06.359Z,47.10
2022-08-09T23:17:28.333Z,47.10
2022-08-09T23:21:41.637Z,47.40
2022-08-09T23:25:55.812Z,47.50
2022-08-09T23:30:11.805Z,47.70
2022-08-09T23:34:25.216Z,47.90
2022-08-09T23:38:49.018Z,48.00
2022-08-09T23:43:06.160Z,48.30
2022-08-09T23:47:21.311Z,48.50
2022-08-09T23:51:34.715Z,48.70
2022-08-09T23:55:49.841Z,48.70
